Time;durP1;ratioP1;P1;durP2;ratioP2;P2;SDS_P1;SDS_P2;PMS_P1;PMS_P2;Temp;Humidity;BMP_temperature;BMP_pressure;BME280_temperature;BME280_humidity;BME280_pressure;Samples;Min_cycle;Max_cycle;Signal;HPM_P1;HPM_P2
2021/11/12 00:03:49;;;;;;;9.83;8.90;;;;;;;20.56;54.29;98023.44;4998886;28;20261;-63
2021/11/12 00:14:24;;;;;;;9.10;8.20;;;;;;;20.55;53.89;98014.94;4991539;28;20273;-63
2021/11/12 00:16:53;;;;;;;9.03;8.13;;;;;;;20.55;54.19;98020.03;4995081;28;20616;-63
2021/11/12 00:19:19;;;;;;;8.17;7.23;;;;;;;20.56;54.28;98013.22;4979942;28;20207;-62
2021/11/12 00:21:46;;;;;;;8.50;7.70;;;;;;;20.56;54.28;98015.78;5004892;28;20249;-63
2021/11/12 00:24:12;;;;;;;9.57;8.67;;;;;;;20.55;54.88;98014.03;5003576;28;20289;-63
2021/11/12 00:26:39;;;;;;;8.47;7.67;;;;;;;20.55;54.09;98012.38;5005937;28;20225;-63
2021/11/12 00:29:08;;;;;;;7.87;7.17;;;;;;;20.55;54.32;98014.94;5005070;28;20242;-63
2021/11/12 00:32:24;;;;;;;8.80;8.00;;;;;;;20.56;54.22;98016.66;5003956;28;20309;-63
2021/11/12 00:34:48;;;;;;;8.00;7.20;;;;;;;20.56;54.66;98026.00;5005049;28;20724;-63
2021/11/12 00:37:26;;;;;;;8.13;7.33;;;;;;;20.55;54.41;98025.13;5001810;28;20257;-63
2021/11/12 00:39:59;;;;;;;8.27;7.47;;;;;;;20.55;54.40;98024.25;5006907;28;20221;-63
2021/11/12 00:42:38;;;;;;;7.93;7.20;;;;;;;20.55;54.49;98019.16;5003199;28;20310;-62
2021/11/12 00:45:05;;;;;;;7.70;7.00;;;;;;;20.55;54.40;98014.03;5006288;28;20290;-63
2021/11/12 00:50:22;;;;;;;8.40;7.60;;;;;;;20.54;54.39;98012.31;5006205;28;20263;-63
2021/11/12 00:55:24;;;;;;;7.93;7.13;;;;;;;20.54;54.24;98015.72;5006049;28;20208;-63
2021/11/12 00:57:51;;;;;;;9.77;8.77;;;;;;;20.53;54.21;98008.88;5007888;28;20202;-63
2021/11/12 01:00:18;;;;;;;9.47;8.57;;;;;;;20.53;54.19;98011.44;5005261;28;20226;-60
2021/11/12 01:02:45;;;;;;;8.43;7.63;;;;;;;20.52;53.99;98007.09;5007513;28;20329;-63
2021/11/12 01:05:12;;;;;;;8.73;7.93;;;;;;;20.53;54.18;98008.00;5002322;28;20205;-63
2021/11/12 01:07:39;;;;;;;8.83;8.03;;;;;;;20.53;54.06;98020.75;4991120;28;20202;-63
2021/11/12 01:10:07;;;;;;;9.50;8.60;;;;;;;20.53;54.10;98018.19;4995677;28;20258;-63
2021/11/12 01:12:35;;;;;;;9.60;8.70;;;;;;;20.53;54.04;98015.66;5008382;28;20245;-63
2021/11/12 01:15:03;;;;;;;8.10;7.40;;;;;;;20.53;54.06;98025.88;4994170;28;20289;-62
2021/11/12 01:17:30;;;;;;;9.17;8.27;;;;;;;20.52;53.87;98017.31;5002152;28;20619;-64
2021/11/12 01:19:56;;;;;;;9.27;8.37;;;;;;;20.53;54.10;98013.09;4995434;28;20249;-63
2021/11/12 01:22:23;;;;;;;8.60;7.80;;;;;;;20.53;54.08;98013.09;4999129;28;20218;-63
2021/11/12 01:24:50;;;;;;;8.27;7.47;;;;;;;20.53;54.00;98015.66;5009525;28;20230;-63
2021/11/12 01:27:16;;;;;;;8.70;7.90;;;;;;;20.53;54.17;98013.97;4997917;28;20290;-63
2021/11/12 01:29:43;;;;;;;8.50;7.70;;;;;;;20.53;54.22;98013.09;5003327;28;20249;-63
2021/11/12 01:32:19;;;;;;;8.23;7.43;;;;;;;20.53;54.21;98011.44;4994430;28;20337;-63
2021/11/12 01:34:47;;;;;;;7.47;6.77;;;;;;;20.53;54.20;98008.88;5005384;28;20332;-63
2021/11/12 01:37:16;;;;;;;8.00;7.30;;;;;;;20.53;54.27;98006.31;4994774;28;20231;-63
2021/11/12 01:39:42;;;;;;;8.47;7.67;;;;;;;20.53;53.80;98005.44;5001206;28;20229;-63
2021/11/12 01:42:10;;;;;;;8.00;7.20;;;;;;;20.22;53.98;97962.47;5011011;28;20215;-63
2021/11/12 01:44:45;;;;;;;8.27;7.47;;;;;;;20.52;54.12;98002.00;5000260;28;20288;-63
2021/11/12 01:50:03;;;;;;;7.13;6.53;;;;;;;20.52;54.17;97994.34;4996714;28;20250;-63
2021/11/12 01:52:39;;;;;;;6.83;6.23;;;;;;;20.53;54.09;97996.09;5005645;28;20249;-63
2021/11/12 01:55:10;;;;;;;8.17;7.40;;;;;;;20.48;54.13;97979.72;5007399;28;20290;-63
2021/11/12 02:00:23;;;;;;;7.17;6.47;;;;;;;20.52;54.65;97989.22;4997408;28;20285;-63
2021/11/12 02:02:49;;;;;;;7.60;6.90;;;;;;;19.74;54.48;97850.69;5114279;22;20257;-69
2021/11/12 02:05:17;;;;;;;7.40;6.70;;;;;;;20.52;53.97;97984.13;4972846;28;20260;-64
2021/11/12 02:07:44;;;;;;;6.90;6.30;;;;;;;20.52;54.43;97986.69;5024035;28;20237;-66
2021/11/12 02:10:14;;;;;;;6.80;6.20;;;;;;;20.53;54.39;97982.44;5020301;28;20276;-67
2021/11/12 02:12:51;;;;;;;7.47;6.77;;;;;;;20.45;54.08;97958.28;5029115;28;20206;-65
2021/11/12 02:15:18;;;;;;;6.97;6.37;;;;;;;19.61;54.45;97830.63;4995537;28;20645;-68
2021/11/12 02:17:48;;;;;;;6.97;6.37;;;;;;;20.52;54.29;97971.34;5012697;28;20228;-66
2021/11/12 02:20:19;;;;;;;7.03;6.43;;;;;;;20.40;53.82;97947.88;5031524;28;20233;-69
2021/11/12 02:22:51;;;;;;;6.93;6.30;;;;;;;19.87;54.49;97856.38;4996301;28;20244;-65
2021/11/12 02:25:29;;;;;;;7.67;6.97;;;;;;;20.51;54.15;97964.53;5030317;28;20695;-66
2021/11/12 02:28:15;;;;;;;7.33;6.73;;;;;;;20.50;54.37;97951.69;5030814;28;20237;-65
2021/11/12 02:30:44;;;;;;;6.93;6.33;;;;;;;19.95;54.06;97861.78;5029672;28;20734;-65
2021/11/12 02:33:16;;;;;;;7.33;6.63;;;;;;;20.50;54.19;97952.56;4994495;28;20253;-68
2021/11/12 02:36:07;;;;;;;7.43;6.77;;;;;;;20.50;54.22;97952.56;5006240;28;20233;-68
2021/11/12 02:38:39;;;;;;;7.23;6.57;;;;;;;20.50;54.25;97952.56;5030843;28;20201;-66
2021/11/12 02:41:05;;;;;;;6.80;6.20;;;;;;;20.49;54.06;97948.25;5008402;28;20205;-66
2021/11/12 02:43:33;;;;;;;7.50;6.80;;;;;;;20.35;54.05;97923.00;5023088;28;20667;-67
2021/11/12 02:46:01;;;;;;;7.07;6.40;;;;;;;19.71;54.01;97814.88;5000972;28;20249;-67
2021/11/12 02:48:29;;;;;;;7.33;6.67;;;;;;;20.37;54.25;97924.78;5013498;28;20197;-67
2021/11/12 02:50:55;;;;;;;7.43;6.73;;;;;;;19.73;54.50;97811.59;5008931;28;20697;-66
2021/11/12 02:53:22;;;;;;;7.23;6.63;;;;;;;20.39;54.29;97923.19;5030454;28;20661;-67
2021/11/12 02:55:50;;;;;;;7.10;6.50;;;;;;;20.25;54.43;97908.97;5026830;28;20208;-65
2021/11/12 02:58:17;;;;;;;6.80;6.20;;;;;;;20.32;54.12;97913.53;5013366;28;20283;-66
2021/11/12 03:00:43;;;;;;;7.17;6.50;;;;;;;20.50;54.10;97939.81;5012676;28;20647;-66
2021/11/12 03:03:10;;;;;;;7.50;6.80;;;;;;;20.50;54.22;97936.38;5024040;28;20228;-66
2021/11/12 03:05:37;;;;;;;7.50;6.87;;;;;;;20.16;54.02;97883.09;5010806;28;20288;-66
2021/11/12 03:08:04;;;;;;;6.90;6.30;;;;;;;20.42;54.00;97923.31;5012926;28;20205;-66
2021/11/12 03:10:31;;;;;;;7.00;6.37;;;;;;;19.65;54.22;97791.69;5030529;28;20689;-69
2021/11/12 03:12:58;;;;;;;7.07;6.37;;;;;;;19.95;54.04;97831.19;5027570;28;20309;-66
2021/11/12 03:15:25;;;;;;;6.43;5.87;;;;;;;19.80;54.42;97822.91;5005523;28;20201;-65
2021/11/12 03:17:52;;;;;;;6.83;6.23;;;;;;;20.46;54.18;97929.41;5012818;28;20282;-66
2021/11/12 03:20:19;;;;;;;6.57;5.97;;;;;;;20.52;53.94;97932.22;5030631;28;20223;-66
2021/11/12 03:25:42;;;;;;;6.63;6.03;;;;;;;20.50;54.48;97934.72;5029233;28;20288;-67
2021/11/12 03:49:28;;;;;;;6.03;5.53;;;;;;;20.50;54.99;97924.50;5029528;28;20229;-68
2021/11/12 05:11:10;;;;;;;5.40;4.90;;;;;;;20.49;54.48;97901.44;4991127;28;20256;-67
2021/11/12 05:56:33;;;;;;;12.07;10.77;;;;;;;20.46;50.61;97903.88;5028105;28;20229;-66
2021/11/12 05:59:00;;;;;;;12.63;10.93;;;;;;;20.45;50.21;97902.13;5029559;28;20285;-67
2021/11/12 06:01:27;;;;;;;13.37;11.50;;;;;;;20.38;48.87;97898.47;5028143;28;20232;-66
2021/11/12 06:03:55;;;;;;;12.90;11.60;;;;;;;20.44;48.88;97906.38;5030492;28;20340;-65
2021/11/12 06:06:21;;;;;;;13.47;11.17;;;;;;;20.40;49.10;97909.59;5030693;28;20582;-68
2021/11/12 06:08:48;;;;;;;12.63;10.90;;;;;;;20.43;49.77;97911.41;5030380;28;20292;-68
2021/11/12 06:11:14;;;;;;;12.77;11.10;;;;;;;20.43;50.20;97907.16;5030965;28;20225;-66
2021/11/12 06:13:41;;;;;;;12.37;10.07;;;;;;;20.43;50.21;97907.16;5031166;28;20253;-67
2021/11/12 06:16:09;;;;;;;10.60;9.53;;;;;;;20.35;50.50;97898.34;5023098;28;20233;-66
2021/11/12 06:18:36;;;;;;;11.13;9.97;;;;;;;20.44;50.58;97914.03;5031088;28;20268;-66
2021/11/12 06:21:03;;;;;;;11.03;9.93;;;;;;;20.36;50.81;97900.09;5025927;28;20206;-67
2021/11/12 06:23:29;;;;;;;10.10;9.10;;;;;;;20.44;51.10;97916.59;5019893;28;20256;-65
2021/11/12 06:25:56;;;;;;;11.97;10.03;;;;;;;20.44;51.20;97911.47;5030751;28;20201;-66
2021/11/12 06:28:23;;;;;;;9.80;8.80;;;;;;;20.46;51.50;97907.28;5031448;28;20320;-68
2021/11/12 06:30:49;;;;;;;10.27;9.20;;;;;;;20.42;51.78;97908.00;5026240;28;20648;-68
2021/11/12 06:33:16;;;;;;;10.10;9.13;;;;;;;20.46;51.56;97907.28;5029980;28;20754;-66
2021/11/12 06:35:43;;;;;;;10.37;9.10;;;;;;;20.47;51.69;97916.72;5031102;28;20290;-67
2021/11/12 06:38:11;;;;;;;9.77;8.77;;;;;;;20.47;51.55;97909.06;5030584;28;20225;-68
2021/11/12 06:40:38;;;;;;;10.00;8.97;;;;;;;20.32;51.89;97885.47;5029383;28;20725;-67
2021/11/12 06:51:22;;;;;;;8.90;8.03;;;;;;;20.48;52.12;97894.56;5030705;28;20257;-65
2021/11/12 06:53:49;;;;;;;9.93;8.90;;;;;;;20.47;52.21;97901.41;5028027;28;20304;-66
2021/11/12 06:56:19;;;;;;;9.37;8.47;;;;;;;20.18;52.39;97847.44;4999457;28;20210;-68
2021/11/12 06:58:46;;;;;;;9.20;8.30;;;;;;;20.47;52.38;97903.94;5013775;28;20651;-68
2021/11/12 07:01:13;;;;;;;9.30;8.40;;;;;;;20.43;52.49;97891.00;5028831;28;20201;-68
2021/11/12 07:03:40;;;;;;;8.53;7.67;;;;;;;20.47;52.78;97901.41;5030363;28;20706;-67
2021/11/12 07:06:07;;;;;;;9.83;8.37;;;;;;;20.48;52.86;97902.25;5025149;28;20811;-66
2021/11/12 07:08:33;;;;;;;9.80;8.20;;;;;;;20.44;52.72;97896.16;5028114;28;21274;-68
2021/11/12 07:11:00;;;;;;;10.33;7.83;;;;;;;20.49;52.62;97902.31;5028837;28;20304;-65
2021/11/12 07:13:28;;;;;;;9.20;8.20;;;;;;;20.46;52.52;97907.28;5028394;28;20264;-66
2021/11/12 07:15:56;;;;;;;8.37;7.23;;;;;;;20.41;52.83;97901.16;4995431;28;20284;-66
2021/11/12 07:18:24;;;;;;;8.40;7.57;;;;;;;20.50;52.91;97914.28;5022811;28;20661;-66
2021/11/12 07:20:51;;;;;;;8.10;7.30;;;;;;;20.36;53.11;97883.88;5028877;28;20284;-66
2021/11/12 07:23:19;;;;;;;8.43;7.63;;;;;;;20.38;52.77;97895.94;5013538;28;20249;-66
2021/11/12 07:25:46;;;;;;;8.67;7.67;;;;;;;20.52;53.03;97916.88;5003478;28;20221;-67
2021/11/12 07:28:12;;;;;;;8.53;7.73;;;;;;;20.51;52.96;97910.91;5027825;28;20236;-67
2021/11/12 07:30:43;;;;;;;9.10;7.40;;;;;;;20.48;52.97;97909.91;5022186;28;20252;-69
2021/11/12 07:33:11;;;;;;;9.57;6.83;;;;;;;20.30;52.95;97879.44;5011925;28;20750;-66
2021/11/12 07:35:46;;;;;;;8.10;7.30;;;;;;;20.52;53.03;97911.78;4987709;28;20711;-68
2021/11/12 07:38:16;;;;;;;8.70;7.70;;;;;;;19.46;52.58;97736.56;5024084;28;20225;-66
2021/11/12 07:48:37;;;;;;;8.43;7.63;;;;;;;20.52;53.15;97894.75;5012139;28;20300;-67
2021/11/12 07:51:04;;;;;;;11.00;7.50;;;;;;;20.51;53.01;97892.16;5028697;28;20778;-66
2021/11/12 07:53:31;;;;;;;8.10;7.30;;;;;;;20.29;52.55;97849.63;5029420;28;20308;-66
2021/11/12 07:55:57;;;;;;;7.30;6.60;;;;;;;20.44;53.02;97882.50;5011673;28;20758;-67
2021/11/12 07:58:24;;;;;;;10.83;8.77;;;;;;;20.52;52.03;97892.22;5029500;28;20288;-66
2021/11/12 08:00:51;;;;;;;13.23;10.03;;;;;;;20.53;50.06;97890.53;5029728;28;20293;-65
2021/11/12 08:03:18;;;;;;;14.60;11.17;;;;;;;19.90;49.30;97776.56;5021219;22;20264;-65
2021/11/12 08:05:49;;;;;;;13.33;10.37;;;;;;;20.51;48.92;97874.28;4990956;28;20686;-66
2021/11/12 08:08:18;;;;;;;11.17;9.97;;;;;;;20.50;49.38;97868.31;4970520;28;20532;-65
2021/11/12 08:11:01;;;;;;;11.00;9.80;;;;;;;20.24;49.89;97825.59;4976719;28;20262;-66
2021/11/12 08:21:12;;;;;;;10.03;8.90;;;;;;;20.44;50.81;97857.88;4967833;28;20638;-66
2021/11/12 08:23:58;;;;;;;9.47;8.47;;;;;;;20.48;51.10;97861.38;4954551;28;20218;-67
2021/11/12 08:37:43;;;;;;;10.13;9.13;;;;;;;20.46;50.84;97850.28;4991615;28;20206;-67
2021/11/12 08:42:11;;;;;;;15.47;9.87;;;;;;;20.37;51.23;97834.59;4987975;28;20285;-68
2021/11/12 08:47:09;;;;;;;11.00;9.20;;;;;;;20.44;51.54;97851.88;4976498;28;20206;-67
2021/11/12 08:49:38;;;;;;;11.67;9.30;;;;;;;20.44;51.25;97854.44;4995487;28;20262;-66
2021/11/12 08:52:06;;;;;;;14.20;11.27;;;;;;;20.43;50.06;97855.25;4993494;28;20282;-68
2021/11/12 08:54:36;;;;;;;12.07;10.53;;;;;;;20.35;49.90;97857.50;4987929;28;20319;-65
2021/11/12 08:57:10;;;;;;;14.00;10.57;;;;;;;20.42;50.41;97868.81;4950611;28;20222;-68
2021/11/12 08:59:40;;;;;;;13.97;10.37;;;;;;;20.42;50.61;97863.72;4991498;28;20238;-68
2021/11/12 09:02:13;;;;;;;10.73;9.63;;;;;;;20.42;50.91;97856.94;4978334;28;20203;-65
2021/11/12 09:04:40;;;;;;;12.90;10.87;;;;;;;20.43;50.84;97856.09;4975449;28;20787;-68
2021/11/12 09:07:08;;;;;;;11.23;10.03;;;;;;;20.42;51.58;97854.38;4989186;28;20207;-66
2021/11/12 09:09:36;;;;;;;14.53;9.67;;;;;;;20.43;51.25;97851.00;4994445;28;20226;-66
2021/11/12 09:12:04;;;;;;;10.50;9.17;;;;;;;20.35;51.39;97836.22;4995185;28;20258;-69
2021/11/12 09:14:32;;;;;;;10.43;9.33;;;;;;;20.13;51.73;97798.78;4976742;28;20222;-66
2021/11/12 09:17:04;;;;;;;9.87;8.87;;;;;;;20.43;52.18;97848.44;4977353;28;20234;-68
2021/11/12 09:19:32;;;;;;;9.83;8.83;;;;;;;20.11;52.04;97787.63;4991941;28;20674;-66
2021/11/12 09:21:59;;;;;;;10.03;8.80;;;;;;;20.44;51.98;97841.66;4968492;28;20792;-67
2021/11/12 09:24:25;;;;;;;9.07;8.13;;;;;;;20.44;51.94;97840.00;4983273;28;20254;-67
2021/11/12 09:26:52;;;;;;;10.17;9.10;;;;;;;20.45;51.72;97840.84;4992028;28;20706;-66
2021/11/12 09:29:18;;;;;;;9.10;8.20;;;;;;;20.45;52.12;97844.28;4996208;28;20230;-65
2021/11/12 09:31:46;;;;;;;9.93;8.50;;;;;;;20.46;52.02;97851.13;4995013;28;20246;-65
2021/11/12 09:34:14;;;;;;;9.47;8.50;;;;;;;20.41;51.97;97829.66;4981497;28;20219;-66
2021/11/12 09:36:40;;;;;;;9.30;8.40;;;;;;;20.46;52.07;97829.84;4989813;28;20644;-66
2021/11/12 09:39:07;;;;;;;9.00;7.87;;;;;;;20.47;51.95;97829.91;4985762;28;20858;-65
2021/11/12 09:41:34;;;;;;;9.43;8.03;;;;;;;19.51;52.08;97655.16;4973534;28;20195;-68
2021/11/12 09:44:03;;;;;;;8.40;7.50;;;;;;;20.40;52.26;97810.03;4978115;28;20757;-68
2021/11/12 09:46:31;;;;;;;8.23;7.43;;;;;;;20.43;52.11;97814.41;4989007;28;20221;-67
2021/11/12 09:48:59;;;;;;;8.67;7.80;;;;;;;20.35;52.32;97797.91;4991229;28;20253;-67
2021/11/12 09:51:27;;;;;;;8.07;7.27;;;;;;;20.40;52.30;97814.28;4964858;28;20223;-65
2021/11/12 09:53:54;;;;;;;8.43;7.53;;;;;;;20.47;52.35;97819.69;4934667;28;20216;-65
2021/11/12 09:56:20;;;;;;;8.53;7.60;;;;;;;20.40;52.47;97804.94;4959101;28;20257;-65
2021/11/12 09:58:50;;;;;;;8.00;7.20;;;;;;;20.40;52.16;97801.53;4944619;28;20278;-68
2021/11/12 10:01:25;;;;;;;8.73;7.83;;;;;;;20.48;52.32;97810.31;4971825;28;20192;-65
2021/11/12 10:03:52;;;;;;;7.47;6.67;;;;;;;20.23;52.38;97759.19;4950758;28;20691;-64
2021/11/12 10:06:21;;;;;;;7.80;7.00;;;;;;;20.39;52.44;97799.78;4992544;28;20198;-64
2021/11/12 10:08:48;;;;;;;8.23;7.27;;;;;;;20.47;52.44;97803.50;4977198;28;20259;-68
2021/11/12 10:11:25;;;;;;;9.17;7.47;;;;;;;20.47;52.61;97791.59;4992214;28;20219;-66
2021/11/12 10:14:01;;;;;;;7.93;7.13;;;;;;;19.48;52.36;97624.47;4991975;28;20233;-68
2021/11/12 10:16:35;;;;;;;7.57;6.77;;;;;;;20.47;52.67;97786.50;4991950;28;20199;-69
2021/11/12 10:19:19;;;;;;;8.10;6.67;;;;;;;20.47;52.61;97786.50;4991431;28;20262;-63
2021/11/12 10:22:01;;;;;;;7.70;7.00;;;;;;;20.46;52.68;97786.44;4992759;28;20227;-66
2021/11/12 10:24:44;;;;;;;7.67;6.87;;;;;;;20.46;52.68;97782.19;4976382;28;20290;-69
2021/11/12 10:27:19;;;;;;;8.03;6.60;;;;;;;20.44;52.88;97770.19;4959429;28;20735;-66
2021/11/12 10:29:48;;;;;;;7.13;6.43;;;;;;;20.36;52.87;97766.47;4972765;28;20229;-65
2021/11/12 10:32:26;;;;;;;8.57;7.17;;;;;;;20.47;52.86;97781.41;4978334;28;20246;-69
2021/11/12 10:34:56;;;;;;;7.60;6.33;;;;;;;20.39;53.02;97769.13;4991104;28;20246;-66
2021/11/12 10:37:25;;;;;;;6.87;6.27;;;;;;;20.48;52.97;97787.34;4959236;28;20195;-66
2021/11/12 10:39:56;;;;;;;7.20;6.50;;;;;;;20.48;52.71;97788.22;4990902;28;20791;-69
2021/11/12 10:42:25;;;;;;;9.80;6.90;;;;;;;20.48;52.91;97779.69;4988425;28;20223;-66
2021/11/12 10:44:57;;;;;;;7.03;6.33;;;;;;;20.48;52.63;97782.25;4987808;28;20214;-69
2021/11/12 10:47:25;;;;;;;6.53;5.93;;;;;;;20.48;52.46;97778.03;4966067;28;20237;-67
2021/11/12 10:49:55;;;;;;;7.60;6.80;;;;;;;20.49;52.62;97771.25;4981043;28;20207;-64
2021/11/12 10:52:24;;;;;;;7.40;6.63;;;;;;;20.48;52.64;97766.94;4985143;28;20274;-67
2021/11/12 10:57:26;;;;;;;6.93;6.23;;;;;;;20.40;52.70;97733.47;4987625;28;20220;-64
2021/11/12 11:00:01;;;;;;;6.97;6.13;;;;;;;20.49;52.83;97738.91;4993164;28;20198;-67
2021/11/12 11:02:29;;;;;;;7.47;6.30;;;;;;;20.42;52.71;97724.19;4976373;28;20194;-64
2021/11/12 11:04:59;;;;;;;6.50;5.87;;;;;;;20.51;52.91;97739.84;4989399;28;20707;-66
2021/11/12 11:07:26;;;;;;;7.27;6.57;;;;;;;20.43;52.85;97736.13;4987216;28;20652;-65
2021/11/12 11:09:55;;;;;;;6.77;6.07;;;;;;;20.44;52.69;97729.34;4966515;28;20786;-65
2021/11/12 11:12:41;;;;;;;6.50;5.83;;;;;;;20.51;52.75;97752.59;4971915;28;20250;-65
2021/11/12 11:15:16;;;;;;;7.20;6.20;;;;;;;20.52;52.68;97748.38;4975543;28;20731;-65
2021/11/12 11:17:45;;;;;;;7.30;6.37;;;;;;;20.47;52.82;97740.56;4996626;28;20624;-66
2021/11/12 11:20:18;;;;;;;7.00;6.40;;;;;;;20.51;52.91;97739.84;4974012;28;20792;-64
2021/11/12 11:22:50;;;;;;;6.47;5.87;;;;;;;20.42;52.84;97723.31;4997665;28;20233;-65
2021/11/12 11:25:16;;;;;;;6.70;6.07;;;;;;;20.48;53.29;97728.63;4982584;28;20222;-65
2021/11/12 11:27:44;;;;;;;6.83;6.13;;;;;;;20.47;52.87;97719.25;4995715;28;20241;-64
2021/11/12 11:30:12;;;;;;;6.40;5.80;;;;;;;20.50;52.94;97717.69;4967547;28;20191;-67
2021/11/12 11:32:40;;;;;;;6.57;5.83;;;;;;;20.46;53.05;97708.16;4956977;28;20249;-65
2021/11/12 11:35:07;;;;;;;6.87;6.23;;;;;;;20.49;52.99;97704.88;4989347;28;20250;-66
2021/11/12 11:37:36;;;;;;;6.50;5.60;;;;;;;20.49;53.08;97713.38;4981343;28;20569;-63
2021/11/12 11:40:03;;;;;;;6.23;5.63;;;;;;;20.50;52.83;97711.69;4968628;28;20222;-64
2021/11/12 11:42:30;;;;;;;7.13;6.43;;;;;;;20.50;52.88;97719.34;4992704;28;20195;-65
2021/11/12 11:44:58;;;;;;;6.23;5.43;;;;;;;20.11;52.87;97642.19;4955970;28;20595;-63
2021/11/12 11:47:24;;;;;;;6.27;5.67;;;;;;;20.49;52.93;97705.72;4960990;28;20199;-65
2021/11/12 11:49:51;;;;;;;6.73;6.03;;;;;;;20.49;52.87;97707.41;4972936;28;20325;-65
2021/11/12 11:52:27;;;;;;;6.37;5.73;;;;;;;20.48;53.04;97710.75;4982386;28;20305;-65
2021/11/12 11:54:54;;;;;;;6.40;5.70;;;;;;;20.48;52.93;97703.97;4984499;28;20222;-68
2021/11/12 11:57:23;;;;;;;6.43;5.83;;;;;;;20.25;52.83;97681.84;4953970;28;20649;-65
2021/11/12 12:00:17;;;;;;;6.07;5.50;;;;;;;20.48;52.89;97698.00;4956064;28;20309;-69
2021/11/12 12:02:44;;;;;;;6.30;5.70;;;;;;;20.44;53.10;97691.94;4976066;28;20196;-63
2021/11/12 12:05:10;;;;;;;6.57;5.97;;;;;;;20.35;53.27;97683.06;4959079;28;20242;-67
2021/11/12 12:07:41;;;;;;;6.50;5.90;;;;;;;20.18;52.93;97648.41;4967313;28;20851;-66
2021/11/12 12:10:20;;;;;;;6.67;5.97;;;;;;;20.48;53.25;97703.97;4968097;28;20286;-67
2021/11/12 12:12:49;;;;;;;5.63;5.10;;;;;;;20.48;53.10;97698.88;4954613;28;20635;-64
2021/11/12 12:15:22;;;;;;;6.90;6.30;;;;;;;20.49;53.11;97692.09;4958064;28;20247;-67
2021/11/12 12:17:50;;;;;;;6.80;6.03;;;;;;;19.91;52.93;97600.66;4967313;28;20199;-66
2021/11/12 13:25:50;;;;;;;5.80;5.30;;;;;;;20.47;53.11;97614.56;4972284;28;20207;-69
2021/11/12 13:28:23;;;;;;;6.07;5.47;;;;;;;20.47;53.53;97618.00;4972199;28;20286;-66
2021/11/12 13:30:53;;;;;;;5.87;5.37;;;;;;;20.48;53.38;97608.66;4972389;28;20230;-65
2021/11/12 13:33:35;;;;;;;5.90;5.30;;;;;;;20.47;53.46;97615.47;4983664;28;20223;-67
2021/11/12 13:36:19;;;;;;;6.50;5.83;;;;;;;20.48;53.31;97619.75;4971608;28;21163;-65
2021/11/12 13:38:54;;;;;;;5.97;5.37;;;;;;;20.48;53.47;97614.63;4970255;28;20195;-67
2021/11/12 13:41:28;;;;;;;4.93;4.43;;;;;;;20.30;53.66;97585.91;4971707;28;20246;-68
2021/11/12 13:44:08;;;;;;;5.70;5.20;;;;;;;20.24;53.39;97572.94;4970883;28;20276;-70
2021/11/12 13:47:03;;;;;;;5.63;5.13;;;;;;;20.39;53.57;97596.44;4969914;28;20219;-69
2021/11/12 13:49:37;;;;;;;5.10;4.70;;;;;;;20.49;53.72;97611.25;4971436;28;20258;-66
2021/11/12 13:52:14;;;;;;;5.90;5.33;;;;;;;20.45;53.65;97601.75;4972501;28;20253;-66
2021/11/12 13:54:52;;;;;;;5.57;5.07;;;;;;;20.48;53.65;97612.06;4968062;28;20219;-65
2021/11/12 13:57:24;;;;;;;5.73;5.20;;;;;;;19.69;53.60;97479.97;4957594;28;20226;-65
2021/11/12 14:00:04;;;;;;;6.00;5.50;;;;;;;20.49;53.66;97607.84;4972092;28;20234;-68
2021/11/12 14:02:50;;;;;;;5.97;5.47;;;;;;;19.66;53.70;97464.56;4971332;28;20547;-63
2021/11/12 14:05:16;;;;;;;6.53;5.83;;;;;;;20.48;53.25;97614.63;4950665;28;20247;-66
2021/11/12 14:07:44;;;;;;;7.40;6.23;;;;;;;20.39;53.57;97596.44;4962816;28;20200;-65
2021/11/12 14:10:14;;;;;;;6.83;5.90;;;;;;;20.49;53.62;97612.97;5012079;23;20670;-63
2021/11/12 14:12:57;;;;;;;6.87;6.17;;;;;;;20.49;53.39;97610.41;4975105;28;20223;-64
2021/11/12 14:16:01;;;;;;;7.13;6.43;;;;;;;20.47;53.47;97605.25;4966754;28;20301;-60
2021/11/12 14:19:07;;;;;;;6.60;6.00;;;;;;;20.48;53.69;97603.53;4970715;28;20262;-65
2021/11/12 14:21:34;;;;;;;6.90;6.30;;;;;;;20.46;53.62;97594.97;4936009;28;20286;-66
2021/11/12 14:30:23;;;;;;;7.00;6.13;;;;;;;20.49;53.72;97595.09;4962309;28;20231;-63
2021/11/12 14:32:36;;;;;;;6.50;5.90;;;;;;;20.48;53.78;97586.56;4956329;28;20356;-63
2021/11/12 14:38:22;;;;;;;7.57;6.23;;;;;;;20.49;53.98;97585.72;4953886;28;20239;-65
2021/11/12 14:46:15;;;;;;;6.90;6.20;;;;;;;20.49;53.97;97585.72;4962119;28;20242;-62
2021/11/12 14:49:27;;;;;;;6.67;6.03;;;;;;;20.49;53.91;97584.88;4945979;28;20215;-64
2021/11/12 14:52:13;;;;;;;8.33;5.97;;;;;;;20.49;53.99;97579.78;4954707;28;20278;-63
2021/11/12 14:54:53;;;;;;;6.37;5.80;;;;;;;20.49;54.13;97580.63;4944864;28;20196;-62
2021/11/12 14:57:34;;;;;;;7.60;6.13;;;;;;;20.49;54.03;97575.50;4968389;28;20223;-63
2021/11/12 15:00:08;;;;;;;10.23;6.13;;;;;;;20.45;54.25;97568.56;4954099;28;20585;-62
2021/11/12 15:02:36;;;;;;;6.67;5.90;;;;;;;20.46;54.12;97569.44;4963443;28;20210;-62
2021/11/12 15:05:04;;;;;;;6.83;5.83;;;;;;;20.50;54.30;97581.50;4951911;28;20259;-62
2021/11/12 15:07:40;;;;;;;6.57;5.90;;;;;;;20.49;54.29;97578.06;4966396;28;20235;-64
2021/11/12 15:10:12;;;;;;;6.13;5.53;;;;;;;20.50;54.42;97563.63;4966389;28;20642;-62
2021/11/12 15:12:41;;;;;;;5.80;5.30;;;;;;;20.51;54.27;97571.34;4956166;28;20258;-65
2021/11/12 15:15:08;;;;;;;6.93;5.60;;;;;;;20.50;54.42;97567.06;4965527;28;20279;-62
2021/11/12 15:17:34;;;;;;;6.50;5.90;;;;;;;20.51;54.39;97562.78;4968638;28;20214;-63
2021/11/12 15:20:02;;;;;;;6.13;5.50;;;;;;;20.51;54.33;97567.91;4960977;28;20254;-62
2021/11/12 15:30:44;;;;;;;5.73;5.13;;;;;;;20.53;54.68;97574.81;4912477;28;20262;-62
2021/11/12 15:33:15;;;;;;;6.20;5.60;;;;;;;20.53;54.43;97566.28;4967821;28;20251;-61
2021/11/12 15:35:43;;;;;;;6.93;5.57;;;;;;;20.54;54.40;97562.94;4968174;28;20200;-64
2021/11/12 15:38:35;;;;;;;6.23;5.60;;;;;;;20.54;54.89;97568.88;4963375;28;20303;-61
2021/11/12 15:41:19;;;;;;;6.73;5.97;;;;;;;20.47;54.87;97558.41;4949952;28;20204;-64
2021/11/12 15:46:46;;;;;;;6.57;5.60;;;;;;;20.55;55.01;97569.75;4951176;28;20226;-65
2021/11/12 15:49:19;;;;;;;6.83;6.10;;;;;;;20.54;54.69;97561.22;4964043;28;20220;-62
2021/11/12 15:52:36;;;;;;;6.70;6.10;;;;;;;20.55;55.22;97557.00;4970492;28;20238;-61
2021/11/12 15:54:43;;;;;;;6.53;5.90;;;;;;;20.34;55.20;97518.84;4960343;28;20231;-63
2021/11/12 16:08:23;;;;;;;6.20;5.60;;;;;;;20.57;55.47;97568.13;4971864;28;20656;-62
2021/11/12 16:16:59;;;;;;;6.73;6.07;;;;;;;20.57;55.11;97569.00;4971510;28;20223;-61
2021/11/12 16:19:02;;;;;;;6.87;6.17;;;;;;;20.58;54.56;97563.09;4965058;28;20614;-61
2021/11/12 16:26:59;;;;;;;6.67;6.07;;;;;;;20.57;55.01;97560.47;4966798;28;20258;-63
2021/11/12 16:29:40;;;;;;;7.00;5.60;;;;;;;20.58;55.29;97572.41;4960148;28;20303;-61
2021/11/12 16:32:09;;;;;;;6.40;5.80;;;;;;;20.53;55.06;97564.59;4969635;28;20651;-64
2021/11/12 16:34:42;;;;;;;9.20;6.13;;;;;;;20.58;55.35;97580.06;4962324;28;20243;-62
2021/11/12 16:37:11;;;;;;;5.80;5.30;;;;;;;20.59;55.19;97581.81;4970506;28;20653;-63
2021/11/12 16:55:30;;;;;;;7.00;6.37;;;;;;;20.57;54.78;97574.09;4968275;28;20295;-62
2021/11/12 17:08:43;;;;;;;7.40;6.70;;;;;;;20.56;54.52;97594.47;4969076;28;20247;-61
2021/11/12 17:49:10;;;;;;;5.90;5.30;;;;;;;20.53;55.29;97602.03;4954452;28;20201;-63
2021/11/12 18:02:33;;;;;;;6.10;5.27;;;;;;;20.50;55.08;97599.38;4944127;28;20231;-62
2021/11/12 21:48:34;;;;;;;4.60;4.20;;;;;;;20.48;56.29;97529.50;4945543;28;20475;-61
2021/11/12 21:51:03;;;;;;;5.53;4.80;;;;;;;20.54;56.02;97535.69;4922819;28;20247;-61
2021/11/12 21:53:30;;;;;;;5.20;4.67;;;;;;;20.49;56.29;97518.50;4928945;23;20231;-62
2021/11/12 21:55:57;;;;;;;6.87;4.50;;;;;;;20.55;56.35;97526.38;4985184;28;20227;-62
2021/11/12 21:58:25;;;;;;;5.03;4.53;;;;;;;20.47;56.17;97515.03;4939136;28;20258;-61
2021/11/12 22:00:52;;;;;;;5.13;4.63;;;;;;;20.55;56.31;97522.13;4973458;28;20208;-62
2021/11/12 22:03:19;;;;;;;4.97;4.37;;;;;;;20.56;56.54;97512.78;4955138;28;20232;-62
2021/11/12 22:05:45;;;;;;;6.90;5.10;;;;;;;20.55;56.33;97517.03;4955923;28;20204;-62
2021/11/12 22:08:12;;;;;;;4.67;4.27;;;;;;;20.55;56.33;97527.25;4956319;28;20276;-61
2021/11/12 22:10:39;;;;;;;6.20;5.07;;;;;;;20.54;56.23;97528.03;4955834;28;20243;-62